sensor_id;sensor_type;location;lat;lon;timestamp;P1;durP1;ratioP1;P2;durP2;ratioP2
58252;SDS011;44050;48.884;8.762;2023-04-09T00:02:04;2.70;;;2.45;;
58252;SDS011;44050;48.884;8.762;2023-04-09T00:04:35;2.58;;;2.38;;
58252;SDS011;44050;48.884;8.762;2023-04-09T00:07:06;1.85;;;1.75;;
58252;SDS011;44050;48.884;8.762;2023-04-09T00:09:37;1.98;;;1.77;;
58252;SDS011;44050;48.884;8.762;2023-04-09T00:12:08;2.40;;;2.30;;
58252;SDS011;44050;48.884;8.762;2023-04-09T00:14:38;2.05;;;1.95;;
58252;SDS011;44050;48.884;8.762;2023-04-09T00:17:09;2.88;;;2.35;;
58252;SDS011;44050;48.884;8.762;2023-04-09T00:19:40;3.40;;;3.10;;
58252;SDS011;44050;48.884;8.762;2023-04-09T00:22:11;3.63;;;3.33;;
58252;SDS011;44050;48.884;8.762;2023-04-09T00:24:42;2.00;;;1.80;;
58252;SDS011;44050;48.884;8.762;2023-04-09T00:27:12;3.30;;;3.00;;
58252;SDS011;44050;48.884;8.762;2023-04-09T00:29:43;2.63;;;2.42;;
58252;SDS011;44050;48.884;8.762;2023-04-09T00:32:14;3.20;;;2.90;;
58252;SDS011;44050;48.884;8.762;2023-04-09T00:34:45;1.98;;;1.77;;
58252;SDS011;44050;48.884;8.762;2023-04-09T00:37:15;2.70;;;2.50;;
58252;SDS011;44050;48.884;8.762;2023-04-09T00:39:46;3.10;;;2.90;;
58252;SDS011;44050;48.884;8.762;2023-04-09T00:42:17;2.15;;;2.03;;
58252;SDS011;44050;48.884;8.762;2023-04-09T00:44:48;4.63;;;3.42;;
58252;SDS011;44050;48.884;8.762;2023-04-09T00:47:18;2.70;;;2.38;;
58252;SDS011;44050;48.884;8.762;2023-04-09T00:49:49;3.13;;;2.40;;
58252;SDS011;44050;48.884;8.762;2023-04-09T00:52:23;2.95;;;2.67;;
58252;SDS011;44050;48.884;8.762;2023-04-09T00:54:54;3.88;;;3.00;;
58252;SDS011;44050;48.884;8.762;2023-04-09T00:59:58;3.05;;;2.75;;
58252;SDS011;44050;48.884;8.762;2023-04-09T01:02:29;4.13;;;3.28;;
58252;SDS011;44050;48.884;8.762;2023-04-09T01:05:00;2.80;;;2.45;;
58252;SDS011;44050;48.884;8.762;2023-04-09T01:10:16;3.08;;;2.75;;
58252;SDS011;44050;48.884;8.762;2023-04-09T01:13:00;2.88;;;2.55;;
58252;SDS011;44050;48.884;8.762;2023-04-09T01:15:35;2.60;;;2.40;;
58252;SDS011;44050;48.884;8.762;2023-04-09T01:18:11;2.67;;;2.47;;
58252;SDS011;44050;48.884;8.762;2023-04-09T01:21:04;3.38;;;3.08;;
58252;SDS011;44050;48.884;8.762;2023-04-09T01:26:09;3.50;;;3.28;;
58252;SDS011;44050;48.884;8.762;2023-04-09T01:28:52;3.17;;;2.22;;
58252;SDS011;44050;48.884;8.762;2023-04-09T01:31:25;2.38;;;2.17;;
58252;SDS011;44050;48.884;8.762;2023-04-09T01:33:56;2.80;;;2.47;;
58252;SDS011;44050;48.884;8.762;2023-04-09T01:36:29;3.33;;;2.60;;
58252;SDS011;44050;48.884;8.762;2023-04-09T01:39:02;2.35;;;2.20;;
58252;SDS011;44050;48.884;8.762;2023-04-09T01:41:34;2.35;;;2.00;;
58252;SDS011;44050;48.884;8.762;2023-04-09T01:44:05;3.10;;;2.00;;
58252;SDS011;44050;48.884;8.762;2023-04-09T01:46:38;3.33;;;2.60;;
58252;SDS011;44050;48.884;8.762;2023-04-09T01:49:09;3.60;;;2.88;;
58252;SDS011;44050;48.884;8.762;2023-04-09T01:51:40;3.35;;;3.05;;
58252;SDS011;44050;48.884;8.762;2023-04-09T01:54:12;3.85;;;3.55;;
58252;SDS011;44050;48.884;8.762;2023-04-09T01:56:46;2.58;;;2.38;;
58252;SDS011;44050;48.884;8.762;2023-04-09T01:59:17;2.00;;;1.80;;
58252;SDS011;44050;48.884;8.762;2023-04-09T02:01:50;2.50;;;1.85;;
58252;SDS011;44050;48.884;8.762;2023-04-09T02:04:23;2.70;;;2.40;;
58252;SDS011;44050;48.884;8.762;2023-04-09T02:06:58;2.70;;;2.42;;
58252;SDS011;44050;48.884;8.762;2023-04-09T02:09:30;2.38;;;2.17;;
58252;SDS011;44050;48.884;8.762;2023-04-09T02:12:05;4.10;;;3.65;;
58252;SDS011;44050;48.884;8.762;2023-04-09T02:14:36;2.17;;;1.98;;
58252;SDS011;44050;48.884;8.762;2023-04-09T02:17:08;4.82;;;3.22;;
58252;SDS011;44050;48.884;8.762;2023-04-09T02:22:11;3.20;;;2.83;;
58252;SDS011;44050;48.884;8.762;2023-04-09T02:24:44;3.40;;;3.15;;
58252;SDS011;44050;48.884;8.762;2023-04-09T02:27:15;3.60;;;3.28;;
58252;SDS011;44050;48.884;8.762;2023-04-09T02:29:46;4.20;;;2.95;;
58252;SDS011;44050;48.884;8.762;2023-04-09T02:32:17;4.03;;;3.30;;
58252;SDS011;44050;48.884;8.762;2023-04-09T02:34:48;3.30;;;3.00;;
58252;SDS011;44050;48.884;8.762;2023-04-09T02:37:19;4.78;;;4.07;;
58252;SDS011;44050;48.884;8.762;2023-04-09T02:39:51;3.08;;;2.75;;
58252;SDS011;44050;48.884;8.762;2023-04-09T02:42:21;3.55;;;2.67;;
58252;SDS011;44050;48.884;8.762;2023-04-09T02:44:52;3.83;;;3.53;;
58252;SDS011;44050;48.884;8.762;2023-04-09T02:47:23;3.88;;;2.22;;
58252;SDS011;44050;48.884;8.762;2023-04-09T02:49:56;6.35;;;3.42;;
58252;SDS011;44050;48.884;8.762;2023-04-09T02:52:27;3.70;;;3.33;;
58252;SDS011;44050;48.884;8.762;2023-04-09T02:54:58;3.05;;;2.85;;
58252;SDS011;44050;48.884;8.762;2023-04-09T02:57:28;4.30;;;3.78;;
58252;SDS011;44050;48.884;8.762;2023-04-09T02:59:59;3.20;;;3.00;;
58252;SDS011;44050;48.884;8.762;2023-04-09T03:02:30;4.57;;;4.17;;
58252;SDS011;44050;48.884;8.762;2023-04-09T03:05:01;5.77;;;3.50;;
58252;SDS011;44050;48.884;8.762;2023-04-09T03:07:32;3.88;;;2.45;;
58252;SDS011;44050;48.884;8.762;2023-04-09T03:10:02;4.53;;;3.35;;
58252;SDS011;44050;48.884;8.762;2023-04-09T03:12:33;3.88;;;3.58;;
58252;SDS011;44050;48.884;8.762;2023-04-09T03:17:36;3.20;;;2.97;;
58252;SDS011;44050;48.884;8.762;2023-04-09T03:20:06;3.55;;;3.25;;
58252;SDS011;44050;48.884;8.762;2023-04-09T03:22:42;7.13;;;4.30;;
58252;SDS011;44050;48.884;8.762;2023-04-09T03:25:25;3.40;;;3.10;;
58252;SDS011;44050;48.884;8.762;2023-04-09T03:27:58;2.70;;;2.50;;
58252;SDS011;44050;48.884;8.762;2023-04-09T03:30:43;5.07;;;4.13;;
58252;SDS011;44050;48.884;8.762;2023-04-09T03:33:13;4.25;;;2.60;;
58252;SDS011;44050;48.884;8.762;2023-04-09T03:35:55;5.05;;;3.92;;
58252;SDS011;44050;48.884;8.762;2023-04-09T03:38:36;4.85;;;3.35;;
58252;SDS011;44050;48.884;8.762;2023-04-09T03:41:12;3.55;;;3.25;;
58252;SDS011;44050;48.884;8.762;2023-04-09T03:43:43;3.60;;;3.28;;
58252;SDS011;44050;48.884;8.762;2023-04-09T03:46:16;3.10;;;2.80;;
58252;SDS011;44050;48.884;8.762;2023-04-09T03:48:50;3.42;;;3.03;;
58252;SDS011;44050;48.884;8.762;2023-04-09T03:51:21;4.68;;;4.03;;
58252;SDS011;44050;48.884;8.762;2023-04-09T03:53:58;5.05;;;3.92;;
58252;SDS011;44050;48.884;8.762;2023-04-09T03:56:29;5.13;;;3.90;;
58252;SDS011;44050;48.884;8.762;2023-04-09T03:59:00;6.05;;;4.15;;
58252;SDS011;44050;48.884;8.762;2023-04-09T04:01:40;3.13;;;2.60;;
58252;SDS011;44050;48.884;8.762;2023-04-09T04:04:11;4.18;;;3.55;;
58252;SDS011;44050;48.884;8.762;2023-04-09T04:06:46;4.03;;;3.45;;
58252;SDS011;44050;48.884;8.762;2023-04-09T04:09:23;4.45;;;4.05;;
58252;SDS011;44050;48.884;8.762;2023-04-09T04:11:59;5.07;;;4.57;;
58252;SDS011;44050;48.884;8.762;2023-04-09T04:14:51;4.95;;;4.45;;
58252;SDS011;44050;48.884;8.762;2023-04-09T04:17:35;6.10;;;4.72;;
58252;SDS011;44050;48.884;8.762;2023-04-09T04:20:09;4.40;;;4.00;;
58252;SDS011;44050;48.884;8.762;2023-04-09T04:22:52;4.03;;;3.58;;
58252;SDS011;44050;48.884;8.762;2023-04-09T04:25:24;5.53;;;5.03;;
58252;SDS011;44050;48.884;8.762;2023-04-09T04:27:55;5.45;;;3.88;;
58252;SDS011;44050;48.884;8.762;2023-04-09T04:30:31;5.88;;;4.18;;
58252;SDS011;44050;48.884;8.762;2023-04-09T04:33:09;4.82;;;4.35;;
58252;SDS011;44050;48.884;8.762;2023-04-09T04:35:47;6.32;;;4.72;;
58252;SDS011;44050;48.884;8.762;2023-04-09T04:38:40;5.70;;;4.28;;
58252;SDS011;44050;48.884;8.762;2023-04-09T04:41:17;6.28;;;5.05;;
58252;SDS011;44050;48.884;8.762;2023-04-09T04:43:55;7.18;;;5.40;;
58252;SDS011;44050;48.884;8.762;2023-04-09T04:46:28;4.60;;;4.20;;
58252;SDS011;44050;48.884;8.762;2023-04-09T04:48:58;4.85;;;4.38;;
58252;SDS011;44050;48.884;8.762;2023-04-09T04:54:20;4.63;;;4.20;;
58252;SDS011;44050;48.884;8.762;2023-04-09T04:56:55;6.20;;;5.70;;
58252;SDS011;44050;48.884;8.762;2023-04-09T04:59:46;3.60;;;3.20;;
58252;SDS011;44050;48.884;8.762;2023-04-09T05:04:56;4.15;;;3.00;;
58252;SDS011;44050;48.884;8.762;2023-04-09T05:07:35;4.93;;;3.92;;
58252;SDS011;44050;48.884;8.762;2023-04-09T05:10:06;4.80;;;4.18;;
58252;SDS011;44050;48.884;8.762;2023-04-09T05:12:41;5.35;;;4.75;;
58252;SDS011;44050;48.884;8.762;2023-04-09T05:15:14;6.47;;;5.13;;
58252;SDS011;44050;48.884;8.762;2023-04-09T05:17:45;5.28;;;4.68;;
58252;SDS011;44050;48.884;8.762;2023-04-09T05:20:17;6.72;;;4.75;;
58252;SDS011;44050;48.884;8.762;2023-04-09T05:23:14;5.88;;;4.88;;
58252;SDS011;44050;48.884;8.762;2023-04-09T05:25:49;6.88;;;4.35;;
58252;SDS011;44050;48.884;8.762;2023-04-09T05:28:29;6.90;;;4.45;;
58252;SDS011;44050;48.884;8.762;2023-04-09T05:31:10;5.00;;;4.40;;
58252;SDS011;44050;48.884;8.762;2023-04-09T05:33:48;4.30;;;3.78;;
58252;SDS011;44050;48.884;8.762;2023-04-09T05:36:24;6.18;;;4.85;;
58252;SDS011;44050;48.884;8.762;2023-04-09T05:38:56;6.03;;;5.13;;
58252;SDS011;44050;48.884;8.762;2023-04-09T05:41:27;5.75;;;5.00;;
58252;SDS011;44050;48.884;8.762;2023-04-09T05:44:29;5.30;;;4.82;;
58252;SDS011;44050;48.884;8.762;2023-04-09T05:47:07;4.50;;;4.05;;
58252;SDS011;44050;48.884;8.762;2023-04-09T05:49:45;6.80;;;5.70;;
58252;SDS011;44050;48.884;8.762;2023-04-09T05:52:19;6.28;;;5.65;;
58252;SDS011;44050;48.884;8.762;2023-04-09T05:54:51;8.00;;;5.85;;
58252;SDS011;44050;48.884;8.762;2023-04-09T05:57:27;7.85;;;5.30;;
58252;SDS011;44050;48.884;8.762;2023-04-09T06:00:03;9.73;;;6.47;;
58252;SDS011;44050;48.884;8.762;2023-04-09T06:02:47;8.45;;;5.78;;
58252;SDS011;44050;48.884;8.762;2023-04-09T06:05:17;6.40;;;5.80;;
58252;SDS011;44050;48.884;8.762;2023-04-09T06:07:49;5.85;;;5.30;;
58252;SDS011;44050;48.884;8.762;2023-04-09T06:10:20;7.78;;;5.40;;
58252;SDS011;44050;48.884;8.762;2023-04-09T06:12:52;7.72;;;6.85;;
58252;SDS011;44050;48.884;8.762;2023-04-09T06:15:23;7.65;;;6.25;;
58252;SDS011;44050;48.884;8.762;2023-04-09T06:17:53;10.10;;;7.13;;
58252;SDS011;44050;48.884;8.762;2023-04-09T06:20:24;7.53;;;6.78;;
58252;SDS011;44050;48.884;8.762;2023-04-09T06:22:55;10.10;;;6.45;;
58252;SDS011;44050;48.884;8.762;2023-04-09T06:25:26;9.32;;;6.20;;
58252;SDS011;44050;48.884;8.762;2023-04-09T06:27:57;8.45;;;7.05;;
58252;SDS011;44050;48.884;8.762;2023-04-09T06:30:27;10.18;;;6.53;;
58252;SDS011;44050;48.884;8.762;2023-04-09T06:32:58;12.27;;;7.35;;
58252;SDS011;44050;48.884;8.762;2023-04-09T06:35:29;6.90;;;5.30;;
58252;SDS011;44050;48.884;8.762;2023-04-09T06:38:00;6.97;;;5.28;;
58252;SDS011;44050;48.884;8.762;2023-04-09T06:40:31;6.32;;;5.72;;
58252;SDS011;44050;48.884;8.762;2023-04-09T06:43:02;6.20;;;5.47;;
58252;SDS011;44050;48.884;8.762;2023-04-09T06:45:40;6.45;;;5.50;;
58252;SDS011;44050;48.884;8.762;2023-04-09T06:48:12;7.60;;;6.60;;
58252;SDS011;44050;48.884;8.762;2023-04-09T06:50:42;7.25;;;5.93;;
58252;SDS011;44050;48.884;8.762;2023-04-09T06:53:14;9.00;;;6.22;;
58252;SDS011;44050;48.884;8.762;2023-04-09T06:55:45;7.05;;;6.28;;
58252;SDS011;44050;48.884;8.762;2023-04-09T06:58:15;5.95;;;5.22;;
58252;SDS011;44050;48.884;8.762;2023-04-09T07:00:46;6.10;;;5.60;;
58252;SDS011;44050;48.884;8.762;2023-04-09T07:03:17;7.25;;;5.88;;
58252;SDS011;44050;48.884;8.762;2023-04-09T07:05:48;6.28;;;5.78;;
58252;SDS011;44050;48.884;8.762;2023-04-09T07:08:19;5.50;;;4.57;;
58252;SDS011;44050;48.884;8.762;2023-04-09T07:10:50;6.20;;;5.55;;
58252;SDS011;44050;48.884;8.762;2023-04-09T07:13:21;6.22;;;5.65;;
58252;SDS011;44050;48.884;8.762;2023-04-09T07:15:52;6.50;;;5.88;;
58252;SDS011;44050;48.884;8.762;2023-04-09T07:18:22;5.47;;;4.10;;
58252;SDS011;44050;48.884;8.762;2023-04-09T07:20:53;5.88;;;4.53;;
58252;SDS011;44050;48.884;8.762;2023-04-09T07:23:24;6.45;;;5.55;;
58252;SDS011;44050;48.884;8.762;2023-04-09T07:25:55;6.65;;;6.00;;
58252;SDS011;44050;48.884;8.762;2023-04-09T07:28:26;4.80;;;4.30;;
58252;SDS011;44050;48.884;8.762;2023-04-09T07:30:57;4.47;;;4.07;;
58252;SDS011;44050;48.884;8.762;2023-04-09T07:33:28;6.07;;;5.47;;
58252;SDS011;44050;48.884;8.762;2023-04-09T07:35:58;4.95;;;4.50;;
58252;SDS011;44050;48.884;8.762;2023-04-09T07:41:00;3.30;;;3.00;;
58252;SDS011;44050;48.884;8.762;2023-04-09T07:46:01;4.05;;;3.50;;
58252;SDS011;44050;48.884;8.762;2023-04-09T07:48:32;5.55;;;3.65;;
58252;SDS011;44050;48.884;8.762;2023-04-09T07:51:03;5.47;;;4.45;;
58252;SDS011;44050;48.884;8.762;2023-04-09T07:53:35;4.50;;;4.05;;
58252;SDS011;44050;48.884;8.762;2023-04-09T07:58:37;2.70;;;2.50;;
58252;SDS011;44050;48.884;8.762;2023-04-09T08:01:07;3.80;;;3.50;;
58252;SDS011;44050;48.884;8.762;2023-04-09T08:03:40;3.35;;;3.13;;
58252;SDS011;44050;48.884;8.762;2023-04-09T08:06:11;5.05;;;4.28;;
58252;SDS011;44050;48.884;8.762;2023-04-09T08:08:42;3.50;;;3.17;;
58252;SDS011;44050;48.884;8.762;2023-04-09T08:11:16;3.10;;;2.78;;
58252;SDS011;44050;48.884;8.762;2023-04-09T08:13:55;3.47;;;3.22;;
58252;SDS011;44050;48.884;8.762;2023-04-09T08:16:26;3.03;;;2.83;;
58252;SDS011;44050;48.884;8.762;2023-04-09T08:19:01;3.88;;;2.78;;
58252;SDS011;44050;48.884;8.762;2023-04-09T08:21:43;4.18;;;3.78;;
58252;SDS011;44050;48.884;8.762;2023-04-09T08:24:19;3.78;;;3.40;;
58252;SDS011;44050;48.884;8.762;2023-04-09T08:27:02;2.65;;;2.45;;
58252;SDS011;44050;48.884;8.762;2023-04-09T08:29:33;2.83;;;2.58;;
58252;SDS011;44050;48.884;8.762;2023-04-09T08:32:04;2.70;;;2.50;;
58252;SDS011;44050;48.884;8.762;2023-04-09T08:34:37;2.50;;;2.13;;
58252;SDS011;44050;48.884;8.762;2023-04-09T08:37:08;3.22;;;2.67;;
58252;SDS011;44050;48.884;8.762;2023-04-09T08:39:51;2.47;;;2.28;;
58252;SDS011;44050;48.884;8.762;2023-04-09T08:42:22;2.22;;;2.03;;
58252;SDS011;44050;48.884;8.762;2023-04-09T08:45:04;3.67;;;2.33;;
58252;SDS011;44050;48.884;8.762;2023-04-09T08:47:40;3.13;;;2.83;;
58252;SDS011;44050;48.884;8.762;2023-04-09T08:50:13;4.22;;;3.80;;
58252;SDS011;44050;48.884;8.762;2023-04-09T08:52:53;3.15;;;2.95;;
58252;SDS011;44050;48.884;8.762;2023-04-09T08:55:29;2.53;;;2.20;;
58252;SDS011;44050;48.884;8.762;2023-04-09T08:58:03;3.72;;;3.30;;
58252;SDS011;44050;48.884;8.762;2023-04-09T09:00:34;2.72;;;2.20;;
58252;SDS011;44050;48.884;8.762;2023-04-09T09:03:07;2.13;;;2.00;;
58252;SDS011;44050;48.884;8.762;2023-04-09T09:05:43;2.92;;;2.30;;
58252;SDS011;44050;48.884;8.762;2023-04-09T09:08:23;4.13;;;3.72;;
58252;SDS011;44050;48.884;8.762;2023-04-09T09:11:08;2.70;;;2.50;;
58252;SDS011;44050;48.884;8.762;2023-04-09T09:13:55;3.15;;;2.83;;
58252;SDS011;44050;48.884;8.762;2023-04-09T09:16:30;3.25;;;2.85;;
58252;SDS011;44050;48.884;8.762;2023-04-09T09:19:28;2.03;;;1.80;;
58252;SDS011;44050;48.884;8.762;2023-04-09T09:22:02;3.50;;;2.80;;
58252;SDS011;44050;48.884;8.762;2023-04-09T09:24:44;3.47;;;3.17;;
58252;SDS011;44050;48.884;8.762;2023-04-09T09:27:30;2.42;;;2.22;;
58252;SDS011;44050;48.884;8.762;2023-04-09T09:30:02;1.70;;;1.60;;
58252;SDS011;44050;48.884;8.762;2023-04-09T09:32:40;2.25;;;2.05;;
58252;SDS011;44050;48.884;8.762;2023-04-09T09:35:12;2.67;;;2.20;;
58252;SDS011;44050;48.884;8.762;2023-04-09T09:37:59;2.50;;;2.30;;
58252;SDS011;44050;48.884;8.762;2023-04-09T09:40:37;3.63;;;2.90;;
58252;SDS011;44050;48.884;8.762;2023-04-09T09:43:11;2.80;;;2.05;;
58252;SDS011;44050;48.884;8.762;2023-04-09T09:45:43;2.92;;;2.58;;
58252;SDS011;44050;48.884;8.762;2023-04-09T09:48:17;2.80;;;2.30;;
58252;SDS011;44050;48.884;8.762;2023-04-09T09:53:19;1.65;;;1.55;;
58252;SDS011;44050;48.884;8.762;2023-04-09T09:55:56;1.67;;;1.48;;
58252;SDS011;44050;48.884;8.762;2023-04-09T09:58:36;2.20;;;2.00;;
58252;SDS011;44050;48.884;8.762;2023-04-09T10:01:09;1.77;;;1.48;;
58252;SDS011;44050;48.884;8.762;2023-04-09T10:03:42;1.92;;;1.35;;
58252;SDS011;44050;48.884;8.762;2023-04-09T10:06:18;2.05;;;1.60;;
58252;SDS011;44050;48.884;8.762;2023-04-09T10:08:50;3.45;;;1.70;;
58252;SDS011;44050;48.884;8.762;2023-04-09T10:11:27;1.88;;;1.35;;
58252;SDS011;44050;48.884;8.762;2023-04-09T10:13:58;2.33;;;1.75;;
58252;SDS011;44050;48.884;8.762;2023-04-09T10:16:29;1.38;;;1.30;;
58252;SDS011;44050;48.884;8.762;2023-04-09T10:19:02;2.38;;;1.35;;
58252;SDS011;44050;48.884;8.762;2023-04-09T10:24:36;1.13;;;1.08;;
58252;SDS011;44050;48.884;8.762;2023-04-09T10:27:08;0.90;;;0.77;;
58252;SDS011;44050;48.884;8.762;2023-04-09T10:30:09;0.82;;;0.82;;
58252;SDS011;44050;48.884;8.762;2023-04-09T10:32:44;1.45;;;1.35;;
58252;SDS011;44050;48.884;8.762;2023-04-09T10:35:24;1.10;;;1.00;;
58252;SDS011;44050;48.884;8.762;2023-04-09T10:37:55;1.27;;;1.23;;
58252;SDS011;44050;48.884;8.762;2023-04-09T10:40:28;1.38;;;1.10;;
58252;SDS011;44050;48.884;8.762;2023-04-09T10:43:00;1.70;;;1.60;;
58252;SDS011;44050;48.884;8.762;2023-04-09T10:45:42;1.45;;;1.35;;
58252;SDS011;44050;48.884;8.762;2023-04-09T10:48:15;1.52;;;1.40;;
58252;SDS011;44050;48.884;8.762;2023-04-09T10:50:50;1.35;;;1.25;;
58252;SDS011;44050;48.884;8.762;2023-04-09T10:53:24;2.05;;;1.40;;
58252;SDS011;44050;48.884;8.762;2023-04-09T10:55:56;1.73;;;1.63;;
58252;SDS011;44050;48.884;8.762;2023-04-09T10:58:28;1.90;;;1.48;;
58252;SDS011;44050;48.884;8.762;2023-04-09T11:01:00;2.25;;;1.42;;
58252;SDS011;44050;48.884;8.762;2023-04-09T11:03:32;1.27;;;1.15;;
58252;SDS011;44050;48.884;8.762;2023-04-09T11:06:08;1.30;;;1.20;;
58252;SDS011;44050;48.884;8.762;2023-04-09T11:08:40;1.00;;;1.00;;
58252;SDS011;44050;48.884;8.762;2023-04-09T11:11:17;1.80;;;1.70;;
58252;SDS011;44050;48.884;8.762;2023-04-09T11:13:58;1.15;;;1.10;;
58252;SDS011;44050;48.884;8.762;2023-04-09T11:16:34;1.38;;;1.27;;
58252;SDS011;44050;48.884;8.762;2023-04-09T11:19:07;2.42;;;1.60;;
58252;SDS011;44050;48.884;8.762;2023-04-09T11:21:41;1.52;;;1.42;;
58252;SDS011;44050;48.884;8.762;2023-04-09T11:24:17;1.10;;;1.00;;
58252;SDS011;44050;48.884;8.762;2023-04-09T11:26:48;1.60;;;1.00;;
58252;SDS011;44050;48.884;8.762;2023-04-09T11:29:21;2.40;;;2.20;;
58252;SDS011;44050;48.884;8.762;2023-04-09T11:31:57;2.00;;;1.88;;
58252;SDS011;44050;48.884;8.762;2023-04-09T11:34:37;0.98;;;0.98;;
58252;SDS011;44050;48.884;8.762;2023-04-09T11:37:13;1.40;;;1.30;;
58252;SDS011;44050;48.884;8.762;2023-04-09T11:39:44;1.35;;;1.35;;
58252;SDS011;44050;48.884;8.762;2023-04-09T11:42:16;1.40;;;1.30;;
58252;SDS011;44050;48.884;8.762;2023-04-09T11:47:19;1.23;;;1.10;;
58252;SDS011;44050;48.884;8.762;2023-04-09T11:49:51;1.33;;;1.23;;
58252;SDS011;44050;48.884;8.762;2023-04-09T11:52:25;1.48;;;1.38;;
58252;SDS011;44050;48.884;8.762;2023-04-09T11:54:59;1.35;;;1.15;;
58252;SDS011;44050;48.884;8.762;2023-04-09T11:57:44;1.55;;;1.38;;
58252;SDS011;44050;48.884;8.762;2023-04-09T12:00:27;1.20;;;1.10;;
58252;SDS011;44050;48.884;8.762;2023-04-09T12:03:03;1.60;;;1.35;;
58252;SDS011;44050;48.884;8.762;2023-04-09T12:05:35;1.52;;;1.42;;
58252;SDS011;44050;48.884;8.762;2023-04-09T12:08:07;1.63;;;1.25;;
58252;SDS011;44050;48.884;8.762;2023-04-09T12:10:39;1.17;;;1.10;;
58252;SDS011;44050;48.884;8.762;2023-04-09T12:13:12;1.35;;;1.25;;
58252;SDS011;44050;48.884;8.762;2023-04-09T12:15:44;1.25;;;1.15;;
58252;SDS011;44050;48.884;8.762;2023-04-09T12:18:28;2.35;;;1.65;;
58252;SDS011;44050;48.884;8.762;2023-04-09T12:21:01;1.90;;;1.67;;
58252;SDS011;44050;48.884;8.762;2023-04-09T12:23:35;1.52;;;1.42;;
58252;SDS011;44050;48.884;8.762;2023-04-09T12:26:07;2.50;;;1.92;;
58252;SDS011;44050;48.884;8.762;2023-04-09T12:28:37;1.80;;;1.70;;
58252;SDS011;44050;48.884;8.762;2023-04-09T12:33:39;1.10;;;1.00;;
58252;SDS011;44050;48.884;8.762;2023-04-09T12:36:19;1.52;;;1.42;;
58252;SDS011;44050;48.884;8.762;2023-04-09T12:41:21;1.65;;;1.35;;
58252;SDS011;44050;48.884;8.762;2023-04-09T12:43:52;4.03;;;3.28;;
58252;SDS011;44050;48.884;8.762;2023-04-09T12:48:53;1.77;;;1.67;;
58252;SDS011;44050;48.884;8.762;2023-04-09T12:53:55;2.10;;;1.92;;
58252;SDS011;44050;48.884;8.762;2023-04-09T12:58:56;1.48;;;1.38;;
58252;SDS011;44050;48.884;8.762;2023-04-09T13:03:58;2.20;;;1.47;;
58252;SDS011;44050;48.884;8.762;2023-04-09T13:08:59;2.43;;;1.37;;
58252;SDS011;44050;48.884;8.762;2023-04-09T13:11:31;3.20;;;2.17;;
58252;SDS011;44050;48.884;8.762;2023-04-09T13:16:33;1.40;;;1.20;;
58252;SDS011;44050;48.884;8.762;2023-04-09T13:19:05;1.38;;;1.27;;
58252;SDS011;44050;48.884;8.762;2023-04-09T13:21:36;1.42;;;1.33;;
58252;SDS011;44050;48.884;8.762;2023-04-09T13:26:37;2.05;;;1.85;;
58252;SDS011;44050;48.884;8.762;2023-04-09T13:29:08;1.80;;;1.70;;
58252;SDS011;44050;48.884;8.762;2023-04-09T13:34:10;1.90;;;1.73;;
58252;SDS011;44050;48.884;8.762;2023-04-09T13:36:42;2.38;;;2.17;;
58252;SDS011;44050;48.884;8.762;2023-04-09T13:41:43;1.40;;;1.30;;
58252;SDS011;44050;48.884;8.762;2023-04-09T13:44:14;1.40;;;1.08;;
58252;SDS011;44050;48.884;8.762;2023-04-09T13:46:45;1.30;;;1.08;;
58252;SDS011;44050;48.884;8.762;2023-04-09T13:49:15;1.30;;;1.20;;
58252;SDS011;44050;48.884;8.762;2023-04-09T13:51:47;1.80;;;1.50;;
58252;SDS011;44050;48.884;8.762;2023-04-09T13:54:18;1.95;;;1.70;;
58252;SDS011;44050;48.884;8.762;2023-04-09T13:56:52;1.92;;;1.83;;
58252;SDS011;44050;48.884;8.762;2023-04-09T13:59:24;1.67;;;1.58;;
58252;SDS011;44050;48.884;8.762;2023-04-09T14:01:55;1.33;;;1.23;;
58252;SDS011;44050;48.884;8.762;2023-04-09T14:04:28;1.70;;;1.60;;
58252;SDS011;44050;48.884;8.762;2023-04-09T14:07:01;1.95;;;1.75;;
58252;SDS011;44050;48.884;8.762;2023-04-09T14:09:33;1.23;;;1.13;;
58252;SDS011;44050;48.884;8.762;2023-04-09T14:12:04;1.35;;;1.25;;
58252;SDS011;44050;48.884;8.762;2023-04-09T14:17:17;1.20;;;1.13;;
58252;SDS011;44050;48.884;8.762;2023-04-09T14:22:19;1.45;;;1.17;;
58252;SDS011;44050;48.884;8.762;2023-04-09T14:24:51;1.83;;;1.42;;
58252;SDS011;44050;48.884;8.762;2023-04-09T14:27:26;1.55;;;1.20;;
58252;SDS011;44050;48.884;8.762;2023-04-09T14:29:57;4.35;;;1.92;;
58252;SDS011;44050;48.884;8.762;2023-04-09T14:34:59;1.30;;;1.17;;
58252;SDS011;44050;48.884;8.762;2023-04-09T14:37:30;1.95;;;1.45;;
58252;SDS011;44050;48.884;8.762;2023-04-09T14:42:34;2.70;;;1.35;;
58252;SDS011;44050;48.884;8.762;2023-04-09T14:50:07;1.70;;;0.90;;
58252;SDS011;44050;48.884;8.762;2023-04-09T14:52:40;1.90;;;1.05;;
58252;SDS011;44050;48.884;8.762;2023-04-09T14:55:19;1.55;;;1.20;;
58252;SDS011;44050;48.884;8.762;2023-04-09T14:57:50;1.70;;;1.40;;
58252;SDS011;44050;48.884;8.762;2023-04-09T15:00:25;2.20;;;1.52;;
58252;SDS011;44050;48.884;8.762;2023-04-09T15:05:27;1.48;;;1.27;;
58252;SDS011;44050;48.884;8.762;2023-04-09T15:10:29;1.30;;;1.20;;
58252;SDS011;44050;48.884;8.762;2023-04-09T15:15:31;1.25;;;1.15;;
58252;SDS011;44050;48.884;8.762;2023-04-09T15:18:03;1.02;;;1.02;;
58252;SDS011;44050;48.884;8.762;2023-04-09T15:20:36;1.67;;;1.58;;
58252;SDS011;44050;48.884;8.762;2023-04-09T15:23:15;0.93;;;0.88;;
58252;SDS011;44050;48.884;8.762;2023-04-09T15:25:47;1.70;;;1.60;;
58252;SDS011;44050;48.884;8.762;2023-04-09T15:28:21;1.13;;;1.02;;
58252;SDS011;44050;48.884;8.762;2023-04-09T15:30:54;1.55;;;1.45;;
58252;SDS011;44050;48.884;8.762;2023-04-09T15:35:57;1.75;;;1.35;;
58252;SDS011;44050;48.884;8.762;2023-04-09T15:38:28;4.20;;;2.25;;
58252;SDS011;44050;48.884;8.762;2023-04-09T15:41:02;2.63;;;1.88;;
58252;SDS011;44050;48.884;8.762;2023-04-09T15:43:34;2.47;;;1.63;;
58252;SDS011;44050;48.884;8.762;2023-04-09T15:48:36;1.50;;;1.38;;
58252;SDS011;44050;48.884;8.762;2023-04-09T15:51:12;1.73;;;1.40;;
58252;SDS011;44050;48.884;8.762;2023-04-09T15:53:43;1.25;;;1.15;;
58252;SDS011;44050;48.884;8.762;2023-04-09T15:58:49;0.90;;;0.90;;
58252;SDS011;44050;48.884;8.762;2023-04-09T16:01:23;1.65;;;1.55;;
58252;SDS011;44050;48.884;8.762;2023-04-09T16:03:54;1.38;;;1.27;;
58252;SDS011;44050;48.884;8.762;2023-04-09T16:06:27;1.92;;;1.83;;
58252;SDS011;44050;48.884;8.762;2023-04-09T16:08:59;2.00;;;1.88;;
58252;SDS011;44050;48.884;8.762;2023-04-09T16:11:31;1.40;;;1.30;;
58252;SDS011;44050;48.884;8.762;2023-04-09T16:14:06;1.73;;;0.98;;
58252;SDS011;44050;48.884;8.762;2023-04-09T16:16:39;1.70;;;1.60;;
58252;SDS011;44050;48.884;8.762;2023-04-09T16:19:16;1.50;;;1.17;;
58252;SDS011;44050;48.884;8.762;2023-04-09T16:21:48;3.13;;;2.38;;
58252;SDS011;44050;48.884;8.762;2023-04-09T16:26:49;1.40;;;1.30;;
58252;SDS011;44050;48.884;8.762;2023-04-09T16:29:21;1.38;;;1.30;;
58252;SDS011;44050;48.884;8.762;2023-04-09T16:31:53;1.77;;;1.67;;
58252;SDS011;44050;48.884;8.762;2023-04-09T16:34:34;1.50;;;1.40;;
58252;SDS011;44050;48.884;8.762;2023-04-09T16:37:05;1.92;;;1.77;;
58252;SDS011;44050;48.884;8.762;2023-04-09T16:39:40;2.42;;;1.63;;
58252;SDS011;44050;48.884;8.762;2023-04-09T16:42:11;2.03;;;1.80;;
58252;SDS011;44050;48.884;8.762;2023-04-09T16:44:47;1.27;;;1.25;;
58252;SDS011;44050;48.884;8.762;2023-04-09T16:47:28;2.13;;;1.23;;
58252;SDS011;44050;48.884;8.762;2023-04-09T16:50:00;1.77;;;1.50;;
58252;SDS011;44050;48.884;8.762;2023-04-09T16:52:39;1.77;;;1.67;;
58252;SDS011;44050;48.884;8.762;2023-04-09T16:55:17;1.20;;;1.15;;
58252;SDS011;44050;48.884;8.762;2023-04-09T16:57:48;2.28;;;2.05;;
58252;SDS011;44050;48.884;8.762;2023-04-09T17:00:19;1.75;;;1.65;;
58252;SDS011;44050;48.884;8.762;2023-04-09T17:03:00;1.92;;;1.67;;